Anderson, SC (29621)

9:50 AM EST on February 14, 2016 (GMT -0500)
Harpers Ridge | | Change Station
CLOSE
Current Station
Personal Weather Station
Location: Anderson, SC
Elevation: 803 ft
Nearby Weather Stations

Elev 803 ft 34.58 °N, 82.66 °W | Updated 4 minutes ago

Overcast
Overcast
28.8 °F
Feels Like 29 °F
N
2.2
Wind Variable Wind from NE

Today
High -- | Low -- °F
--% Chance of Precip.
Yesterday
High -- | Low -- °F
Precip. -- in
Pressure 30.48 in
Visibility 10.0 miles
Clouds Few 7500 ft
Overcast 11000 ft
Windchill 29 °F
Dew Point 5 °F
Humidity 36%
Rainfall 0.00 in
Snow Depth Not available.
7:17 AM 6:12 PM
Waxing Crescent, 42% visible
METAR KAND 141356Z AUTO 08008KT 10SM FEW075 OVC110 M03/M16 A3046 RMK AO2 SLP321 T10281156
Pressure 30.48 in
Visibility 10.0 miles
Clouds Few 7500 ft
Overcast 11000 ft
Windchill 29 °F
Dew Point 5 °F
Humidity 36%
Rainfall 0.00 in
Snow Depth Not available.
7:17 AM 6:12 PM
Waxing Crescent, 42% visible
METAR KAND 141356Z AUTO 08008KT 10SM FEW075 OVC110 M03/M16 A3046 RMK AO2 SLP321 T10281156

10-Day Weather Forecast

Almanac

Astronomy

Feb. 14, 2016 Rise Set
Actual Time
Civil Twilight
Nautical Twilight
Astronomical Twilight
Moon
Length of Visible Light
Length of Day
Tomorrow will be .
, % of the Moon is Illuminated

Today's Extremes

State Highs State Lows

Community

WunderPhotos

Upload Photos

1,892,781 photos uploaded!

WunderBlog® & News

Nearby

Air Quality

  Air Quality AQ Index Pollutant
Not available.

Snow Depth

Station Depth Elevation

Earthquake Activity

City Distance Mag. Time & Date
Minimum magnitude displayed is 2.5.

Coastal Water Temperatures

Place Temperature

Stations

Nearby Weather Stations

Station Location Temp. Windchill Dew Point Humidity Wind Precip. Elev Updated Type
                   

Watches & Warnings

There are currently no watches in effect.